Marianna, AR

10:40 AM CDT on May 24, 2015 (GMT -0500)
marianna,arrkansas | | Change Station
CLOSE
Current Station
Personal Weather Station
Location: Marianna, AR
Elevation: 230 ft
Nearby Weather Stations

Elev 230 ft 34.77 °N, 90.77 °W | Updated 44 seconds ago

Partly Cloudy
Partly Cloudy
79.2 °F
Feels Like 82 °F
N
8.9
Wind Variable Wind from SSW

Today
High -- | Low -- °F
--% Chance of Precip.
Yesterday
High -- | Low -- °F
Precip. -- in
5:54 AM 8:05 PM
Waxing Crescent, 40% visible
Pressure 30.09 in
Visibility 10.0 miles
Clouds Mostly Cloudy 2700 ft
Mostly Cloudy 3400 ft
Heat Index 82 °F
Dew Point 71 °F
Humidity 77%
Rainfall 0.00 in
Snow Depth Not available.
UV 5 out of 12
Pollen 6.70 out of 12
Air Quality Not available.
Flu Activity No Activity
METAR KUTA 241535Z AUTO 16017KT 10SM BKN027 BKN034 26/20 A3009 RMK AO2

More Conditions Fewer Conditions

Pressure 30.09 in
Visibility 10.0 miles
Clouds Mostly Cloudy 2700 ft
Mostly Cloudy 3400 ft
Heat Index 82 °F
Dew Point 71 °F
Humidity 77%
Rainfall 0.00 in
Snow Depth Not available.
UV 5 out of 12
Pollen 6.70 out of 12
Air Quality Not available.
Flu Activity No Activity
METAR KUTA 241535Z AUTO 16017KT 10SM BKN027 BKN034 26/20 A3009 RMK AO2

More Conditions Fewer Conditions

10-Day Weather Forecast

Almanac

Astronomy

May. 24, 2015 Rise Set
Actual Time
Civil Twilight
Nautical Twilight
Astronomical Twilight
Moon
Length of Visible Light
Length of Day
Tomorrow will be .
, % of the Moon is Illuminated

Today's Extremes

State Highs State Lows

Community

WunderPhotos

Upload Photos

1,823,779 photos uploaded!

WunderBlogs® & News

Nearby

Air Quality

  Air Quality AQ Index Pollutant
Not available.

Snow Depth

Station Depth Elevation

Earthquake Activity

City Distance Mag. Time & Date
Minimum magnitude displayed is 2.5.

Coastal Water Temperatures

Place Temperature

Stations

Nearby Weather Stations

Station Location Temp. Windchill Dew Point Humidity Wind Precip. Elev Updated Type